createdAt,value
2022-08-26T00:01:29.672Z,100148.34
2022-08-26T00:03:56.970Z,100144.59
2022-08-26T00:06:25.404Z,100143.75
2022-08-26T00:08:52.198Z,100148.56
2022-08-26T00:11:26.888Z,100149.03
2022-08-26T00:13:57.342Z,100142.81
2022-08-26T00:16:26.540Z,100148.56
2022-08-26T00:18:54.382Z,100141.19
2022-08-26T00:21:21.564Z,100141.06
2022-08-26T00:23:48.326Z,100140.81
2022-08-26T00:26:15.470Z,100138.81
2022-08-26T00:28:42.381Z,100140.09
2022-08-26T00:31:09.482Z,100131.53
2022-08-26T00:33:39.287Z,100132.72
2022-08-26T00:36:07.345Z,100125.56
2022-08-26T00:38:37.859Z,100128.03
2022-08-26T00:41:05.760Z,100116.06
2022-08-26T00:43:46.176Z,100122.84
2022-08-26T00:46:23.689Z,100117.19
2022-08-26T00:48:53.883Z,100117.56
2022-08-26T00:51:24.804Z,100114.88
2022-08-26T00:54:05.672Z,100119.22
2022-08-26T00:56:47.024Z,100116.63
2022-08-26T00:59:17.952Z,100123.78
2022-08-26T01:01:45.908Z,100124.38
2022-08-26T01:04:17.787Z,100119.66
2022-08-26T01:06:46.721Z,100118.53
2022-08-26T01:09:14.181Z,100123.50
2022-08-26T01:11:41.831Z,100120.78
2022-08-26T01:14:09.536Z,100130.13
2022-08-26T01:16:37.129Z,100130.13
2022-08-26T01:19:16.259Z,100126.84
2022-08-26T01:21:57.776Z,100131.22
2022-08-26T01:24:28.353Z,100126.84
2022-08-26T01:27:01.767Z,100129.78
2022-08-26T01:29:30.054Z,100128.94
2022-08-26T01:31:57.916Z,100130.03
2022-08-26T01:34:28.075Z,100125.38
2022-08-26T01:37:01.924Z,100133.47
2022-08-26T01:39:29.237Z,100136.06
2022-08-26T01:41:58.004Z,100125.53
2022-08-26T01:44:36.297Z,100133.81
2022-08-26T01:47:05.000Z,100121.75
2022-08-26T01:49:35.771Z,100128.78
2022-08-26T01:52:04.537Z,100126.81
2022-08-26T01:54:32.465Z,100123.31
2022-08-26T01:56:59.726Z,100121.88
2022-08-26T01:59:26.759Z,100125.06
2022-08-26T02:01:53.698Z,100120.47
2022-08-26T02:04:34.434Z,100113.31
2022-08-26T02:07:09.218Z,100114.13
2022-08-26T02:09:41.401Z,100114.41
2022-08-26T02:12:12.417Z,100106.94
2022-08-26T02:14:44.517Z,100114.88
2022-08-26T02:17:11.577Z,100113.69
2022-08-26T02:19:42.006Z,100114.50
2022-08-26T02:22:14.370Z,100117.97
2022-08-26T02:24:53.600Z,100116.16
2022-08-26T02:27:32.117Z,100112.56
2022-08-26T02:30:10.250Z,100112.50
2022-08-26T02:32:38.162Z,100108.16
2022-08-26T02:35:08.380Z,100107.22
2022-08-26T02:37:36.192Z,100099.72
2022-08-26T02:40:05.168Z,100098.56
2022-08-26T02:42:32.340Z,100100.13
2022-08-26T02:44:59.498Z,100110.91
2022-08-26T02:47:28.989Z,100104.69
2022-08-26T02:49:55.925Z,100106.66
2022-08-26T02:52:22.867Z,100103.72
2022-08-26T02:54:49.735Z,100101.03
2022-08-26T02:57:17.370Z,100102.91
2022-08-26T02:59:44.230Z,100104.91
2022-08-26T03:02:11.363Z,100108.06
2022-08-26T03:04:39.507Z,100107.50
2022-08-26T03:07:07.203Z,100104.81
2022-08-26T03:09:35.021Z,100106.75
2022-08-26T03:12:02.147Z,100105.94
2022-08-26T03:14:29.829Z,100109.50
2022-08-26T03:16:56.787Z,100104.69
2022-08-26T03:19:25.143Z,100108.44
2022-08-26T03:21:52.987Z,100093.78
2022-08-26T03:24:26.292Z,100106.19
2022-08-26T03:26:53.261Z,100097.19
2022-08-26T03:29:39.863Z,100099.06
2022-08-26T03:32:06.895Z,100097.78
2022-08-26T03:34:34.314Z,100102.34
2022-08-26T03:37:01.517Z,100100.06
2022-08-26T03:39:28.815Z,100090.84
2022-08-26T03:41:58.965Z,100087.22
2022-08-26T03:44:26.522Z,100088.19
2022-08-26T03:46:54.631Z,100086.34
2022-08-26T03:49:22.115Z,100095.47
2022-08-26T03:51:48.941Z,100092.03
2022-08-26T03:54:16.924Z,100099.28
2022-08-26T03:56:43.753Z,100096.00
2022-08-26T03:59:13.410Z,100092.59
2022-08-26T04:01:40.250Z,100092.69
2022-08-26T04:04:07.034Z,100096.38
2022-08-26T04:06:37.225Z,100097.66
2022-08-26T04:09:09.763Z,100091.78
2022-08-26T04:11:39.448Z,100083.28
2022-08-26T04:14:17.635Z,100085.63
2022-08-26T04:16:47.386Z,100086.09
2022-08-26T04:19:15.532Z,100087.75
2022-08-26T04:21:43.520Z,100089.88
2022-08-26T04:24:13.207Z,100095.47
2022-08-26T04:26:42.756Z,100093.03
2022-08-26T04:29:18.241Z,100093.72
2022-08-26T04:31:45.647Z,100093.63
2022-08-26T04:34:14.108Z,100093.53
2022-08-26T04:36:42.005Z,100107.94
2022-08-26T04:39:12.152Z,100096.22
2022-08-26T04:41:39.671Z,100092.22
2022-08-26T04:44:07.799Z,100098.69
2022-08-26T04:46:35.461Z,100095.41
2022-08-26T04:49:08.843Z,100094.56
2022-08-26T04:51:36.556Z,100092.25
2022-08-26T04:54:04.425Z,100100.69
2022-08-26T04:56:34.153Z,100096.47
2022-08-26T04:59:03.100Z,100100.47
2022-08-26T05:01:31.639Z,100093.75
2022-08-26T05:03:59.021Z,100097.88
2022-08-26T05:06:26.271Z,100091.88
2022-08-26T05:08:54.200Z,100095.50
2022-08-26T05:11:22.058Z,100094.38
2022-08-26T05:13:49.249Z,100096.59
2022-08-26T05:16:16.985Z,100088.59
2022-08-26T05:18:45.754Z,100093.16
2022-08-26T05:21:25.638Z,100095.81
2022-08-26T05:23:56.751Z,100099.34
2022-08-26T05:26:24.515Z,100099.91
2022-08-26T05:28:54.677Z,100101.56
2022-08-26T05:31:25.298Z,100107.91
2022-08-26T05:33:52.647Z,100105.38
2022-08-26T05:36:22.021Z,100113.97
2022-08-26T05:38:49.759Z,100110.16
2022-08-26T05:41:34.361Z,100116.53
2022-08-26T05:44:06.795Z,100110.50
2022-08-26T05:46:34.704Z,100117.75
2022-08-26T05:49:02.629Z,100119.06
2022-08-26T05:51:31.015Z,100117.44
2022-08-26T05:53:58.817Z,100118.28
2022-08-26T05:56:27.714Z,100112.22
2022-08-26T05:58:56.347Z,100114.53
2022-08-26T06:01:26.891Z,100113.38
2022-08-26T06:04:01.331Z,100110.59
2022-08-26T06:06:32.303Z,100106.31
2022-08-26T06:09:01.255Z,100113.47
2022-08-26T06:11:30.602Z,100113.75
2022-08-26T06:14:03.580Z,100116.06
2022-08-26T06:16:38.284Z,100115.13
2022-08-26T06:19:10.768Z,100103.69
2022-08-26T06:21:41.316Z,100118.69
2022-08-26T06:24:30.432Z,100120.38
2022-08-26T06:27:01.229Z,100122.84
2022-08-26T06:29:30.082Z,100114.72
2022-08-26T06:31:58.039Z,100121.59
2022-08-26T06:34:29.679Z,100115.41
2022-08-26T06:36:58.681Z,100114.81
2022-08-26T06:39:25.629Z,100116.22
2022-08-26T06:41:52.479Z,100120.69
2022-08-26T06:44:19.330Z,100104.41
2022-08-26T06:46:50.280Z,100119.69
2022-08-26T06:49:17.724Z,100120.28
2022-08-26T06:51:44.498Z,100117.66
2022-08-26T06:54:11.506Z,100124.03
2022-08-26T06:56:41.770Z,100120.28
2022-08-26T06:59:11.190Z,100120.72
2022-08-26T07:01:44.614Z,100124.56
2022-08-26T07:04:15.708Z,100120.47
2022-08-26T07:06:48.980Z,100112.97
2022-08-26T07:09:16.966Z,100113.84
2022-08-26T07:11:44.663Z,100117.72
2022-08-26T07:14:12.218Z,100115.91
2022-08-26T07:16:39.634Z,100117.84
2022-08-26T07:19:10.627Z,100109.81
2022-08-26T07:21:42.016Z,100109.31
2022-08-26T07:24:11.095Z,100105.84
2022-08-26T07:26:38.836Z,100101.81
2022-08-26T07:29:12.609Z,100099.41
2022-08-26T07:31:42.750Z,100098.03
2022-08-26T07:34:10.811Z,100100.81
2022-08-26T07:36:38.205Z,100100.03
2022-08-26T07:39:06.280Z,100100.31
2022-08-26T07:41:33.312Z,100097.06
2022-08-26T07:44:00.900Z,100094.38
2022-08-26T07:46:30.307Z,100098.69
2022-08-26T07:48:57.722Z,100100.63
2022-08-26T07:51:25.656Z,100099.00
2022-08-26T07:53:53.177Z,100106.06
2022-08-26T07:56:23.269Z,100092.72
2022-08-26T07:58:54.110Z,100106.91
2022-08-26T08:01:23.805Z,100098.72
2022-08-26T08:03:53.340Z,100100.91
2022-08-26T08:06:22.536Z,100096.00
2022-08-26T08:08:55.242Z,100099.53
2022-08-26T08:11:23.736Z,100097.59
2022-08-26T08:13:56.146Z,100097.91
2022-08-26T08:16:28.559Z,100093.28
2022-08-26T08:18:59.371Z,100092.47
2022-08-26T08:21:27.859Z,100100.94
2022-08-26T08:23:57.340Z,100092.75
2022-08-26T08:26:25.707Z,100093.03
2022-08-26T08:28:57.149Z,100090.53
2022-08-26T08:31:55.737Z,100088.63
2022-08-26T08:34:18.230Z,100089.13
2022-08-26T08:36:46.375Z,100092.66
2022-08-26T08:39:13.863Z,100087.75
2022-08-26T08:41:50.128Z,100094.81
2022-08-26T08:44:31.512Z,100085.84
2022-08-26T08:47:11.405Z,100086.91
2022-08-26T08:49:38.155Z,100089.34
2022-08-26T08:52:14.832Z,100090.13
2022-08-26T08:54:41.692Z,100083.03
2022-08-26T08:57:20.729Z,100086.53
2022-08-26T09:00:00.477Z,100088.97
2022-08-26T09:02:34.627Z,100079.41
2022-08-26T09:05:17.380Z,100078.84
2022-08-26T09:07:50.372Z,100068.19
2022-08-26T09:10:40.465Z,100075.81
2022-08-26T09:13:16.347Z,100071.16
2022-08-26T09:15:56.676Z,100076.06
2022-08-26T09:18:48.774Z,100067.28
2022-08-26T09:21:18.345Z,100070.28
2022-08-26T09:23:49.471Z,100068.88
2022-08-26T09:26:45.164Z,100073.53
2022-08-26T09:29:24.036Z,100071.59
2022-08-26T09:31:52.029Z,100061.22
2022-08-26T09:34:19.104Z,100067.75
2022-08-26T09:36:54.391Z,100061.22
2022-08-26T09:39:23.875Z,100063.34
2022-08-26T09:42:09.619Z,100054.59
2022-08-26T09:44:56.567Z,100056.16
2022-08-26T09:47:31.566Z,100053.13
2022-08-26T09:50:29.999Z,100053.88
2022-08-26T09:53:28.800Z,100055.19
2022-08-26T09:56:17.734Z,100053.28
2022-08-26T09:58:47.374Z,100059.78
2022-08-26T10:01:22.964Z,100045.28
2022-08-26T10:03:51.435Z,100055.94
2022-08-26T10:06:18.159Z,100048.25
2022-08-26T10:08:53.088Z,100045.50
2022-08-26T10:11:47.195Z,100039.19
2022-08-26T10:14:18.536Z,100044.88
2022-08-26T10:16:59.560Z,100041.00
2022-08-26T10:19:55.864Z,100038.72
2022-08-26T10:22:26.204Z,100032.16
2022-08-26T10:24:59.613Z,100028.34
2022-08-26T10:27:49.724Z,100024.59
2022-08-26T10:30:24.007Z,100023.50
2022-08-26T10:32:56.807Z,100022.75
2022-08-26T10:35:32.878Z,100020.75
2022-08-26T10:38:11.373Z,100015.63
2022-08-26T10:40:53.270Z,100016.63
2022-08-26T10:43:28.302Z,100016.28
2022-08-26T10:46:02.206Z,100010.97
2022-08-26T10:48:56.419Z,100002.16
2022-08-26T10:51:32.135Z,100010.59
2022-08-26T10:54:15.595Z,100006.53
2022-08-26T10:56:58.595Z,100001.75
2022-08-26T10:59:34.670Z,99999.66
2022-08-26T11:02:11.551Z,99998.78
2022-08-26T11:04:48.191Z,99998.47
2022-08-26T11:07:36.881Z,99993.03
2022-08-26T11:10:21.532Z,99998.84
2022-08-26T11:13:03.795Z,99989.97
2022-08-26T11:15:31.958Z,99990.41
2022-08-26T11:18:03.601Z,99993.97
2022-08-26T11:20:31.087Z,99995.47
2022-08-26T11:23:20.581Z,99995.22
2022-08-26T11:25:57.110Z,99989.47
2022-08-26T11:28:44.092Z,99985.66
2022-08-26T11:31:39.973Z,99979.00
2022-08-26T11:34:13.722Z,99971.50
2022-08-26T11:36:54.544Z,99981.97
2022-08-26T11:39:47.848Z,99973.50
2022-08-26T11:42:23.702Z,99971.09
2022-08-26T11:44:57.911Z,99966.63
2022-08-26T11:47:29.339Z,99971.09
2022-08-26T11:50:26.714Z,99958.81
2022-08-26T11:53:04.352Z,99961.06
2022-08-26T11:55:36.202Z,99955.25
2022-08-26T11:58:05.769Z,99945.94
2022-08-26T12:00:47.636Z,99942.03
2022-08-26T12:03:21.473Z,99948.97
2022-08-26T12:05:52.406Z,99947.44
2022-08-26T12:08:21.689Z,99944.91
2022-08-26T12:10:51.419Z,99939.22
2022-08-26T12:13:22.833Z,99945.63
2022-08-26T12:15:58.029Z,99939.44
2022-08-26T12:18:32.076Z,99933.88
2022-08-26T12:21:01.550Z,99942.09
2022-08-26T12:23:40.140Z,99934.13
2022-08-26T12:26:22.549Z,99940.75
2022-08-26T12:29:00.904Z,99938.31
2022-08-26T12:31:33.763Z,99930.19
2022-08-26T12:34:04.109Z,99928.88
2022-08-26T12:36:32.250Z,99929.41
2022-08-26T12:39:09.433Z,99916.50
2022-08-26T12:41:42.566Z,99915.47
2022-08-26T12:44:29.511Z,99913.22
2022-08-26T12:47:11.712Z,99914.56
2022-08-26T12:49:41.348Z,99916.50
2022-08-26T12:52:29.867Z,99904.91
2022-08-26T12:55:02.933Z,99899.25
2022-08-26T12:57:33.172Z,99901.47
2022-08-26T13:00:28.372Z,99902.28
2022-08-26T13:02:55.586Z,99895.75
2022-08-26T13:05:26.024Z,99899.03
2022-08-26T13:08:10.581Z,99888.66
2022-08-26T13:10:40.310Z,99889.78
2022-08-26T13:13:07.182Z,99878.44
2022-08-26T13:15:34.020Z,99881.19
2022-08-26T13:18:03.341Z,99876.91
2022-08-26T13:20:30.625Z,99874.78
2022-08-26T13:22:59.079Z,99865.88
2022-08-26T13:25:26.438Z,99870.53
2022-08-26T13:27:53.276Z,99865.34
2022-08-26T13:30:20.182Z,99862.00
2022-08-26T13:32:46.976Z,99866.25
2022-08-26T13:35:13.765Z,99858.66
2022-08-26T13:37:40.478Z,99860.28
2022-08-26T13:40:09.591Z,99848.31
2022-08-26T13:42:36.394Z,99853.28
2022-08-26T13:45:05.009Z,99859.03
2022-08-26T13:47:31.858Z,99855.06
2022-08-26T13:49:58.575Z,99846.38
2022-08-26T13:52:30.367Z,99845.94
2022-08-26T13:54:58.249Z,99844.72
2022-08-26T13:57:27.915Z,99847.38
2022-08-26T13:59:56.513Z,99844.06
2022-08-26T14:02:23.343Z,99830.50
2022-08-26T14:04:50.151Z,99839.41
2022-08-26T14:07:17.090Z,99830.94
2022-08-26T14:09:43.852Z,99835.44
2022-08-26T14:12:10.524Z,99828.75
2022-08-26T14:14:37.336Z,99825.56
2022-08-26T14:17:04.034Z,99835.41
2022-08-26T14:19:30.740Z,99827.75
2022-08-26T14:21:57.771Z,99826.66
2022-08-26T14:24:24.442Z,99823.09
2022-08-26T14:26:51.103Z,99818.03
2022-08-26T14:29:17.866Z,99814.81
2022-08-26T14:31:44.766Z,99814.09
2022-08-26T14:34:14.004Z,99809.72
2022-08-26T14:36:40.713Z,99812.16
2022-08-26T14:39:09.792Z,99806.59
2022-08-26T14:41:54.692Z,99812.28
2022-08-26T14:44:25.996Z,99806.06
2022-08-26T14:46:53.552Z,99805.56
2022-08-26T14:49:23.037Z,99797.75
2022-08-26T14:51:50.272Z,99809.34
2022-08-26T14:54:18.295Z,99799.00
2022-08-26T14:56:52.440Z,99794.00
2022-08-26T14:59:23.192Z,99793.59
2022-08-26T15:01:50.077Z,99798.19
2022-08-26T15:04:17.232Z,99799.81
2022-08-26T15:06:44.087Z,99801.72
2022-08-26T15:09:11.402Z,99793.59
2022-08-26T15:11:38.252Z,99793.22
2022-08-26T15:14:06.320Z,99800.50
2022-08-26T15:16:34.330Z,99794.31
2022-08-26T15:19:04.492Z,99788.13
2022-08-26T15:21:33.080Z,99785.63
2022-08-26T15:24:00.986Z,99784.50
2022-08-26T15:26:29.828Z,99794.13
2022-08-26T15:28:56.975Z,99786.22
2022-08-26T15:31:31.123Z,99792.41
2022-08-26T15:34:00.219Z,99795.94
2022-08-26T15:36:28.887Z,99789.75
2022-08-26T15:38:56.764Z,99792.59
2022-08-26T15:41:24.453Z,99791.28
2022-08-26T15:43:51.656Z,99790.97
2022-08-26T15:46:19.306Z,99789.38
2022-08-26T15:48:46.364Z,99789.84
2022-08-26T15:51:25.987Z,99792.09
2022-08-26T15:53:56.339Z,99788.66
2022-08-26T15:56:27.760Z,99781.84
2022-08-26T15:58:56.141Z,99794.97
2022-08-26T16:01:27.748Z,99782.16
2022-08-26T16:03:55.398Z,99789.94
2022-08-26T16:06:27.969Z,99784.72
2022-08-26T16:08:56.144Z,99779.88
2022-08-26T16:11:23.721Z,99776.94
2022-08-26T16:13:50.650Z,99778.34
2022-08-26T16:16:17.744Z,99772.16
2022-08-26T16:18:45.395Z,99773.03
2022-08-26T16:21:17.295Z,99768.19
2022-08-26T16:23:45.269Z,99763.81
2022-08-26T16:26:19.634Z,99760.59
2022-08-26T16:28:47.427Z,99763.63
2022-08-26T16:31:15.242Z,99760.66
2022-08-26T16:33:42.037Z,99760.16
2022-08-26T16:36:09.656Z,99748.81
2022-08-26T16:38:37.836Z,99758.72
2022-08-26T16:41:05.329Z,99752.00
2022-08-26T16:43:32.098Z,99753.94
2022-08-26T16:45:58.898Z,99757.31
2022-08-26T16:48:26.849Z,99754.66
2022-08-26T16:50:55.514Z,99761.63
2022-08-26T16:53:23.259Z,99759.56
2022-08-26T16:55:50.645Z,99764.00
2022-08-26T16:58:18.078Z,99751.50
2022-08-26T17:00:45.369Z,99756.78
2022-08-26T17:03:12.556Z,99753.59
2022-08-26T17:05:40.331Z,99755.06
2022-08-26T17:08:07.170Z,99745.59
2022-08-26T17:10:34.667Z,99750.88
2022-08-26T17:13:01.381Z,99747.41
2022-08-26T17:15:28.425Z,99744.25
2022-08-26T17:17:56.191Z,99748.97
2022-08-26T17:20:24.355Z,99752.56
2022-08-26T17:22:53.459Z,99753.13
2022-08-26T17:25:22.122Z,99752.38
2022-08-26T17:27:48.951Z,99756.81
2022-08-26T17:30:17.186Z,99753.28
2022-08-26T17:32:44.163Z,99745.69
2022-08-26T17:35:12.877Z,99751.78
2022-08-26T17:37:40.895Z,99748.31
2022-08-26T17:40:11.265Z,99760.69
2022-08-26T17:42:39.372Z,99757.72
2022-08-26T17:45:07.474Z,99753.72
2022-08-26T17:47:34.937Z,99768.03
2022-08-26T17:50:02.055Z,99763.72
2022-08-26T17:52:29.456Z,99764.63
2022-08-26T17:54:57.298Z,99779.16
2022-08-26T17:57:25.208Z,99771.78
2022-08-26T17:59:52.699Z,99776.28
2022-08-26T18:02:21.210Z,99782.63
2022-08-26T18:04:48.037Z,99780.53
2022-08-26T18:07:15.762Z,99783.22
2022-08-26T18:09:42.796Z,99777.00
2022-08-26T18:12:09.816Z,99784.69
2022-08-26T18:14:36.815Z,99785.31
2022-08-26T18:17:04.085Z,99783.19
2022-08-26T18:19:31.454Z,99786.19
2022-08-26T18:21:58.733Z,99791.13
2022-08-26T18:24:25.658Z,99793.38
2022-08-26T18:26:52.377Z,99787.16
2022-08-26T18:29:20.103Z,99794.53
2022-08-26T18:31:48.486Z,99786.63
2022-08-26T18:34:16.903Z,99787.72
2022-08-26T18:36:44.078Z,99793.97
2022-08-26T18:39:12.178Z,99785.00
2022-08-26T18:41:46.031Z,99795.63
2022-08-26T18:44:15.092Z,99791.84
2022-08-26T18:46:42.493Z,99790.47
2022-08-26T18:49:12.424Z,99791.03
2022-08-26T18:51:39.567Z,99792.38
2022-08-26T18:54:07.474Z,99790.72
2022-08-26T18:56:36.377Z,99796.69
2022-08-26T18:59:05.416Z,99796.69
2022-08-26T19:01:32.691Z,99792.91
2022-08-26T19:04:01.454Z,99790.47
2022-08-26T19:06:31.573Z,99798.06
2022-08-26T19:08:59.071Z,99803.22
2022-08-26T19:11:32.109Z,99802.09
2022-08-26T19:14:01.434Z,99799.91
2022-08-26T19:16:29.050Z,99802.34
2022-08-26T19:18:56.600Z,99802.06
2022-08-26T19:21:23.388Z,99801.47
2022-08-26T19:23:51.307Z,99802.56
2022-08-26T19:26:19.346Z,99800.91
2022-08-26T19:28:48.219Z,99810.16
2022-08-26T19:31:15.582Z,99809.88
2022-08-26T19:33:45.482Z,99810.13
2022-08-26T19:36:22.022Z,99816.66
2022-08-26T19:38:50.100Z,99812.59
2022-08-26T19:41:37.911Z,99805.56
2022-08-26T19:44:33.752Z,99812.84
2022-08-26T19:47:00.892Z,99810.13
2022-08-26T19:49:27.608Z,99812.28
2022-08-26T19:51:54.565Z,99810.63
2022-08-26T19:54:24.108Z,99814.91
2022-08-26T19:56:50.665Z,99812.97
2022-08-26T19:59:17.768Z,99817.03
2022-08-26T20:01:44.926Z,99813.75
2022-08-26T20:04:12.468Z,99823.69
2022-08-26T20:06:39.327Z,99818.22
2022-08-26T20:09:06.269Z,99823.28
2022-08-26T20:11:33.024Z,99827.06
2022-08-26T20:13:59.869Z,99823.22
2022-08-26T20:16:26.653Z,99819.38
2022-08-26T20:19:11.862Z,99829.06
2022-08-26T20:21:40.446Z,99825.75
2022-08-26T20:24:13.251Z,99827.88
2022-08-26T20:26:43.208Z,99833.34
2022-08-26T20:29:12.896Z,99840.16
2022-08-26T20:31:40.097Z,99840.50
2022-08-26T20:34:07.252Z,99836.41
2022-08-26T20:36:34.531Z,99839.38
2022-08-26T20:39:01.493Z,99838.22
2022-08-26T20:41:28.627Z,99835.53
2022-08-26T20:43:56.408Z,99843.59
2022-08-26T20:46:25.185Z,99841.44
2022-08-26T20:48:53.683Z,99838.06
2022-08-26T20:51:23.524Z,99844.38
2022-08-26T20:53:51.145Z,99838.56
2022-08-26T20:56:23.563Z,99839.56
2022-08-26T20:58:53.324Z,99834.41
2022-08-26T21:01:25.961Z,99843.13
2022-08-26T21:03:55.183Z,99848.53
2022-08-26T21:06:21.998Z,99843.91
2022-08-26T21:08:50.341Z,99844.94
2022-08-26T21:11:19.784Z,99842.53
2022-08-26T21:16:36.623Z,99850.88
2022-08-26T21:19:04.391Z,99847.09
2022-08-26T21:21:31.486Z,99846.16
2022-08-26T21:23:58.814Z,99849.94
2022-08-26T21:26:26.391Z,99850.72
2022-08-26T21:28:53.842Z,99853.22
2022-08-26T21:31:24.487Z,99841.34
2022-08-26T21:33:51.866Z,99848.59
2022-08-26T21:36:19.360Z,99845.22
2022-08-26T21:38:46.136Z,99849.56
2022-08-26T21:41:19.445Z,99838.69
2022-08-26T21:43:47.882Z,99838.91
2022-08-26T21:46:21.877Z,99840.75
2022-08-26T21:48:56.158Z,99838.00
2022-08-26T21:51:25.428Z,99840.63
2022-08-26T21:53:52.950Z,99839.31
2022-08-26T21:56:21.207Z,99834.19
2022-08-26T21:58:48.094Z,99834.53
2022-08-26T22:01:19.736Z,99832.63
2022-08-26T22:03:47.906Z,99824.22
2022-08-26T22:06:21.245Z,99825.16
2022-08-26T22:08:47.996Z,99834.34
2022-08-26T22:11:15.986Z,99825.72
2022-08-26T22:13:43.503Z,99818.66
2022-08-26T22:16:11.440Z,99826.16
2022-08-26T22:18:38.953Z,99826.34
2022-08-26T22:21:08.674Z,99823.72
2022-08-26T22:23:36.807Z,99821.50
2022-08-26T22:26:05.589Z,99826.22
2022-08-26T22:28:32.648Z,99829.44
2022-08-26T22:30:59.450Z,99836.63
2022-08-26T22:33:26.301Z,99831.81
2022-08-26T22:35:53.730Z,99836.25
2022-08-26T22:38:21.154Z,99824.97
2022-08-26T22:40:50.875Z,99832.31
2022-08-26T22:43:19.327Z,99829.69
2022-08-26T22:45:48.404Z,99828.69
2022-08-26T22:48:18.236Z,99819.13
2022-08-26T22:50:46.622Z,99823.88
2022-08-26T22:53:14.431Z,99820.94
2022-08-26T22:55:41.343Z,99814.44
2022-08-26T22:58:08.134Z,99817.75
2022-08-26T23:00:35.510Z,99816.34
2022-08-26T23:03:04.249Z,99817.59
2022-08-26T23:05:31.860Z,99821.56
2022-08-26T23:07:59.022Z,99822.50
2022-08-26T23:10:25.862Z,99818.91
2022-08-26T23:12:53.136Z,99810.16
2022-08-26T23:15:21.222Z,99808.31
2022-08-26T23:17:52.338Z,99813.88
2022-08-26T23:20:27.075Z,99813.63
2022-08-26T23:22:55.015Z,99809.03
2022-08-26T23:25:22.657Z,99803.31
2022-08-26T23:27:51.732Z,99801.66
2022-08-26T23:30:24.121Z,99806.50
2022-08-26T23:32:50.809Z,99806.44
2022-08-26T23:35:20.512Z,99809.81
2022-08-26T23:37:54.030Z,99805.78
2022-08-26T23:40:32.278Z,99810.53
2022-08-26T23:43:01.507Z,99807.00
2022-08-26T23:45:28.320Z,99806.50
2022-08-26T23:47:55.434Z,99807.59
2022-08-26T23:50:44.702Z,99811.03
2022-08-26T23:53:19.161Z,99809.97
2022-08-26T23:55:48.854Z,99806.66
2022-08-26T23:58:17.376Z,99804.06
